Time;durP1;ratioP1;P1;durP2;ratioP2;P2;SDS_P1;SDS_P2;PMS_P1;PMS_P2;Temp;Humidity;BMP_temperature;BMP_pressure;BME280_temperature;BME280_humidity;BME280_pressure;Samples;Min_cycle;Max_cycle;Signal;HPM_P1;HPM_P2
2022/08/17 00:00:46;;;;;;;8.30;7.47;;;20.20;99.90;;;;;;5073225;28;20585;-70
2022/08/17 00:03:21;;;;;;;7.50;7.00;;;20.20;99.90;;;;;;5073059;28;20578;-70
2022/08/17 00:05:59;;;;;;;8.17;7.67;;;20.30;99.90;;;;;;5073042;28;20661;-70
2022/08/17 00:08:35;;;;;;;8.27;7.67;;;20.40;99.90;;;;;;5072936;28;21117;-70
2022/08/17 00:11:08;;;;;;;8.10;7.00;;;20.40;99.90;;;;;;5073098;28;20575;-70
2022/08/17 00:13:42;;;;;;;7.57;7.03;;;20.50;99.90;;;;;;5073507;28;20672;-70
2022/08/17 00:16:13;;;;;;;7.47;6.87;;;20.60;99.90;;;;;;5072769;28;20626;-70
2022/08/17 00:18:41;;;;;;;7.23;6.60;;;20.70;99.90;;;;;;5073090;28;20570;-70
2022/08/17 00:21:09;;;;;;;7.77;7.17;;;20.80;99.90;;;;;;5073253;28;20578;-71
2022/08/17 00:23:36;;;;;;;7.50;6.90;;;20.90;99.90;;;;;;5072793;28;20567;-70
2022/08/17 00:26:02;;;;;;;6.77;6.27;;;20.90;99.90;;;;;;5074711;28;20614;-70
2022/08/17 00:28:29;;;;;;;7.70;7.00;;;20.90;99.90;;;;;;5077183;28;20575;-71
2022/08/17 00:30:55;;;;;;;7.57;7.07;;;21.00;99.90;;;;;;5077148;28;20578;-70
2022/08/17 00:33:27;;;;;;;7.87;7.40;;;21.00;99.90;;;;;;5076527;28;20601;-70
2022/08/17 00:35:54;;;;;;;7.93;7.33;;;21.00;99.90;;;;;;5076751;28;20657;-70
2022/08/17 00:38:22;;;;;;;12.40;7.20;;;20.80;99.90;;;;;;5076562;28;20637;-70
2022/08/17 00:40:50;;;;;;;7.80;7.10;;;20.80;99.90;;;;;;5076804;28;20578;-70
2022/08/17 00:43:27;;;;;;;11.30;8.73;;;20.80;99.90;;;;;;5076743;28;20586;-70
2022/08/17 00:45:54;;;;;;;8.27;7.57;;;20.80;99.90;;;;;;5075750;28;20917;-70
2022/08/17 00:48:21;;;;;;;8.40;7.60;;;20.70;99.90;;;;;;5077152;28;20586;-70
2022/08/17 00:51:14;;;;;;;8.63;7.83;;;20.60;99.90;;;;;;5077289;28;21033;-70
2022/08/17 00:53:44;;;;;;;8.53;7.60;;;20.60;99.90;;;;;;5077207;28;20606;-70
2022/08/17 00:56:16;;;;;;;8.70;7.90;;;20.40;99.90;;;;;;5077286;28;20988;-70
2022/08/17 00:58:43;;;;;;;8.17;7.63;;;20.30;99.90;;;;;;5077107;28;20587;-70
2022/08/17 01:01:11;;;;;;;8.80;8.00;;;20.30;99.90;;;;;;5077616;28;20575;-73
2022/08/17 01:03:39;;;;;;;8.83;8.10;;;20.30;99.90;;;;;;5075989;28;20663;-72
2022/08/17 01:06:08;;;;;;;10.00;8.97;;;20.30;99.90;;;;;;5075835;28;20645;-73
2022/08/17 01:08:37;;;;;;;8.53;8.03;;;20.30;99.90;;;;;;5076188;28;20578;-73
2022/08/17 01:11:05;;;;;;;7.93;7.43;;;20.40;99.90;;;;;;5076134;28;20634;-73
2022/08/17 01:13:38;;;;;;;8.20;7.60;;;20.40;99.90;;;;;;5076131;28;20991;-73
2022/08/17 01:16:13;;;;;;;8.00;7.20;;;20.40;99.90;;;;;;5075761;28;20634;-73
2022/08/17 01:18:39;;;;;;;7.73;7.10;;;20.40;99.90;;;;;;5075648;28;20971;-73
2022/08/17 01:21:15;;;;;;;9.00;8.30;;;20.40;99.90;;;;;;5075630;28;20636;-73
2022/08/17 01:23:42;;;;;;;13.90;8.50;;;20.40;99.90;;;;;;5075519;28;20638;-73
2022/08/17 01:26:08;;;;;;;8.97;8.33;;;20.30;99.90;;;;;;5075665;28;21126;-73
2022/08/17 01:28:37;;;;;;;8.50;7.80;;;20.20;99.90;;;;;;5075430;28;20671;-73
2022/08/17 01:31:06;;;;;;;7.77;7.20;;;20.20;99.90;;;;;;5075936;28;20578;-72
2022/08/17 01:33:32;;;;;;;8.17;7.23;;;20.10;99.90;;;;;;5075943;28;20574;-73
2022/08/17 01:35:59;;;;;;;8.40;7.50;;;20.10;99.90;;;;;;5075219;28;21275;-73
2022/08/17 01:38:30;;;;;;;7.40;6.80;;;20.10;99.90;;;;;;5075881;28;20679;-72
2022/08/17 01:41:04;;;;;;;9.47;7.90;;;20.20;99.90;;;;;;5075672;28;20631;-73
2022/08/17 01:43:53;;;;;;;9.20;8.60;;;20.20;99.90;;;;;;5075563;28;20573;-73
2022/08/17 01:46:24;;;;;;;9.63;8.93;;;20.10;99.90;;;;;;5075154;28;20606;-73
2022/08/17 01:48:50;;;;;;;8.77;7.23;;;20.20;99.90;;;;;;5075522;28;20622;-72
2022/08/17 01:51:18;;;;;;;8.87;8.07;;;20.00;99.90;;;;;;5075574;28;20579;-73
2022/08/17 01:53:52;;;;;;;8.33;7.73;;;19.90;99.90;;;;;;5075615;28;20571;-73
2022/08/17 01:56:23;;;;;;;9.57;8.70;;;19.90;99.90;;;;;;5075087;28;20638;-73
2022/08/17 01:58:50;;;;;;;8.70;8.10;;;19.90;99.90;;;;;;5074915;28;20618;-73
2022/08/17 02:01:19;;;;;;;8.73;7.77;;;20.10;99.90;;;;;;5075432;28;20656;-73
2022/08/17 02:03:45;;;;;;;7.80;7.20;;;20.10;99.90;;;;;;5075157;28;20575;-73
2022/08/17 02:06:12;;;;;;;8.87;8.10;;;20.20;99.90;;;;;;5074908;28;20641;-73
2022/08/17 02:08:39;;;;;;;7.77;7.37;;;20.30;99.90;;;;;;5074813;28;21117;-70
2022/08/17 02:11:13;;;;;;;8.93;8.10;;;20.30;99.90;;;;;;5074647;28;20579;-73
2022/08/17 02:13:40;;;;;;;8.37;7.67;;;20.30;99.90;;;;;;5074790;28;20613;-73
2022/08/17 02:16:06;;;;;;;7.90;7.33;;;20.30;99.90;;;;;;5074570;28;20665;-73
2022/08/17 02:18:33;;;;;;;7.50;6.93;;;20.30;99.90;;;;;;5074868;28;20582;-73
2022/08/17 02:20:59;;;;;;;6.70;6.30;;;20.40;99.90;;;;;;5074546;28;20950;-73
2022/08/17 02:23:29;;;;;;;8.57;7.80;;;20.40;99.90;;;;;;5074462;28;21124;-73
2022/08/17 02:25:57;;;;;;;9.97;8.30;;;20.40;99.90;;;;;;5074545;28;20575;-73
2022/08/17 02:28:25;;;;;;;8.00;7.40;;;20.40;99.90;;;;;;5074341;28;20954;-73
2022/08/17 02:30:51;;;;;;;8.50;7.90;;;20.40;99.90;;;;;;5074770;28;20618;-73
2022/08/17 02:33:17;;;;;;;10.90;7.50;;;20.30;99.90;;;;;;5074624;28;20586;-73
2022/08/17 02:35:44;;;;;;;9.03;8.27;;;20.20;99.90;;;;;;5074414;28;20574;-73
2022/08/17 02:38:11;;;;;;;9.47;8.47;;;20.20;99.90;;;;;;5072962;28;20622;-73
2022/08/17 02:40:39;;;;;;;9.50;8.57;;;20.20;99.90;;;;;;5074583;28;20578;-73
2022/08/17 02:43:09;;;;;;;8.57;7.90;;;20.20;99.90;;;;;;5074248;28;20615;-73
2022/08/17 02:45:35;;;;;;;10.13;8.00;;;20.10;99.90;;;;;;5074414;28;20632;-73
2022/08/17 02:48:03;;;;;;;8.13;7.20;;;20.20;99.90;;;;;;5072335;28;20563;-73
2022/08/17 02:50:29;;;;;;;8.97;8.20;;;20.20;99.90;;;;;;5074366;28;20583;-73
2022/08/17 02:52:56;;;;;;;8.00;7.50;;;20.20;99.90;;;;;;5074373;28;20582;-73
2022/08/17 02:55:29;;;;;;;7.97;7.47;;;20.20;99.90;;;;;;5073667;28;20646;-73
2022/08/17 02:57:56;;;;;;;7.97;7.27;;;20.20;99.90;;;;;;5074619;28;20984;-73
2022/08/17 03:00:27;;;;;;;10.30;7.30;;;20.20;99.90;;;;;;5074016;28;20911;-73
2022/08/17 03:02:55;;;;;;;7.90;7.30;;;20.20;99.90;;;;;;5073763;28;20629;-73
2022/08/17 03:05:24;;;;;;;7.57;6.97;;;20.30;99.90;;;;;;5073710;28;20726;-73
2022/08/17 03:07:51;;;;;;;7.67;7.00;;;20.30;99.90;;;;;;5073785;28;20590;-73
2022/08/17 03:10:19;;;;;;;8.80;7.37;;;20.40;99.90;;;;;;5073795;28;20562;-73
2022/08/17 03:12:45;;;;;;;8.60;7.90;;;20.40;99.90;;;;;;5073655;28;20939;-73
2022/08/17 03:15:30;;;;;;;10.67;9.30;;;20.30;99.90;;;;;;5073589;28;20910;-73
2022/08/17 03:17:57;;;;;;;9.20;8.30;;;20.00;99.90;;;;;;5073583;28;20673;-73
2022/08/17 03:20:26;;;;;;;8.30;7.70;;;19.50;99.90;;;;;;5072067;28;20610;-73
2022/08/17 03:22:54;;;;;;;9.23;8.53;;;19.50;99.90;;;;;;5073393;28;21091;-73
2022/08/17 03:25:31;;;;;;;8.90;8.20;;;19.40;99.90;;;;;;5073288;28;20645;-73
2022/08/17 03:27:58;;;;;;;8.50;7.70;;;19.40;99.90;;;;;;5073155;28;21095;-73
2022/08/17 03:30:26;;;;;;;8.60;7.90;;;19.00;99.90;;;;;;5073070;28;20582;-73
2022/08/17 03:32:55;;;;;;;9.37;8.57;;;19.20;99.90;;;;;;5073177;28;20579;-73
2022/08/17 03:35:26;;;;;;;8.03;7.33;;;19.40;99.90;;;;;;5073091;28;20578;-73
2022/08/17 03:37:52;;;;;;;7.93;7.43;;;19.40;99.90;;;;;;5073357;28;20626;-73
2022/08/17 03:40:19;;;;;;;7.83;7.30;;;19.60;99.90;;;;;;5073379;28;20566;-73
2022/08/17 03:42:45;;;;;;;7.60;7.10;;;19.60;99.90;;;;;;5072137;28;20573;-73
2022/08/17 03:45:15;;;;;;;7.50;6.90;;;19.60;99.90;;;;;;5073303;28;20569;-73
2022/08/17 03:58:58;;;;;;;7.97;7.17;;;19.80;99.90;;;;;;5073182;28;20575;-73
2022/08/17 04:01:25;;;;;;;8.70;7.50;;;19.90;99.90;;;;;;5072932;28;20621;-74
2022/08/17 04:03:52;;;;;;;8.33;7.60;;;19.90;99.90;;;;;;5073340;28;21018;-74
2022/08/17 04:06:18;;;;;;;8.13;7.47;;;20.00;99.90;;;;;;5072813;28;20703;-74
2022/08/17 04:08:44;;;;;;;7.20;6.63;;;20.00;99.90;;;;;;5073111;28;20565;-74
2022/08/17 04:11:11;;;;;;;7.77;7.00;;;20.10;99.90;;;;;;5073175;28;20643;-73
2022/08/17 04:13:37;;;;;;;9.90;7.30;;;20.10;99.90;;;;;;5072961;28;20976;-73
2022/08/17 04:16:04;;;;;;;7.53;6.90;;;20.10;99.90;;;;;;5072876;28;20626;-73
2022/08/17 04:18:30;;;;;;;9.00;8.20;;;20.20;99.90;;;;;;5072866;28;20626;-73
2022/08/17 04:20:57;;;;;;;8.13;7.47;;;20.10;99.90;;;;;;5072920;28;20575;-73
2022/08/17 04:23:27;;;;;;;7.93;7.20;;;20.20;99.90;;;;;;5072939;28;20644;-73
2022/08/17 04:25:53;;;;;;;7.47;6.83;;;20.20;99.90;;;;;;5072540;28;20609;-73
2022/08/17 04:28:19;;;;;;;7.80;7.20;;;20.20;99.90;;;;;;5072856;28;20573;-73
2022/08/17 04:30:46;;;;;;;7.23;6.73;;;20.10;99.90;;;;;;5073014;28;20618;-73
2022/08/17 04:33:20;;;;;;;8.70;8.00;;;20.10;99.90;;;;;;5072486;28;20633;-73
2022/08/17 04:35:50;;;;;;;8.20;7.60;;;20.10;99.90;;;;;;5072569;28;21204;-73
2022/08/17 04:38:23;;;;;;;8.33;7.60;;;19.90;99.90;;;;;;5072598;28;21216;-73
2022/08/17 04:43:37;;;;;;;11.30;8.80;;;19.40;99.90;;;;;;5072354;28;20989;-73
2022/08/17 04:46:06;;;;;;;8.80;8.10;;;19.40;99.90;;;;;;5072652;28;20632;-73
2022/08/17 04:48:36;;;;;;;20.73;8.60;;;19.50;99.90;;;;;;5072339;28;20546;-73
2022/08/17 04:51:13;;;;;;;9.03;8.20;;;19.50;99.90;;;;;;5072758;28;20652;-73
2022/08/17 04:53:43;;;;;;;8.20;7.40;;;19.60;99.90;;;;;;5072358;28;20967;-73
2022/08/17 04:56:14;;;;;;;8.90;8.10;;;19.60;99.90;;;;;;5072682;28;20601;-73
2022/08/17 04:58:42;;;;;;;9.03;8.33;;;19.40;99.90;;;;;;5072301;28;20611;-73
2022/08/17 05:01:09;;;;;;;9.97;9.17;;;19.40;99.90;;;;;;5072494;28;20575;-73
2022/08/17 05:03:36;;;;;;;23.13;8.73;;;19.50;99.90;;;;;;5073003;28;21133;-70
2022/08/17 05:06:02;;;;;;;8.73;7.90;;;19.60;99.90;;;;;;5072018;28;20638;-70
2022/08/17 05:08:29;;;;;;;8.80;8.17;;;19.60;99.90;;;;;;5072491;28;21006;-70
2022/08/17 05:10:55;;;;;;;15.23;10.33;;;19.60;99.90;;;;;;5072362;28;20578;-68
2022/08/17 05:13:25;;;;;;;13.63;7.90;;;19.60;99.90;;;;;;5075521;28;20598;-70
2022/08/17 05:15:55;;;;;;;7.77;7.10;;;19.70;99.90;;;;;;5075623;28;20591;-71
2022/08/17 05:18:22;;;;;;;12.50;7.33;;;19.90;99.90;;;;;;5075594;28;20629;-69
2022/08/17 05:20:48;;;;;;;15.03;8.20;;;20.10;99.90;;;;;;5075963;28;20682;-69
2022/08/17 05:23:16;;;;;;;16.23;8.33;;;20.10;99.90;;;;;;5075367;28;20591;-69
2022/08/17 05:25:48;;;;;;;12.70;8.57;;;19.90;99.90;;;;;;5075763;28;20964;-69
2022/08/17 05:28:17;;;;;;;8.73;8.13;;;19.90;99.90;;;;;;5075393;28;21135;-69
2022/08/17 05:30:45;;;;;;;8.33;7.80;;;20.00;99.90;;;;;;5075610;28;20610;-69
2022/08/17 05:33:15;;;;;;;8.77;8.10;;;20.10;99.90;;;;;;5075411;28;21109;-69
2022/08/17 05:35:45;;;;;;;9.27;8.07;;;20.10;99.90;;;;;;5058199;28;20664;-70
2022/08/17 05:38:13;;;;;;;9.97;9.07;;;20.10;99.90;;;;;;5075513;28;20665;-70
2022/08/17 05:40:40;;;;;;;9.20;8.60;;;20.00;99.90;;;;;;5075451;28;20579;-70
2022/08/17 05:43:22;;;;;;;7.40;6.70;;;20.00;99.90;;;;;;5075594;28;20654;-70
2022/08/17 05:46:01;;;;;;;10.90;8.30;;;20.20;99.90;;;;;;5075523;28;20566;-70
2022/08/17 05:48:33;;;;;;;10.10;9.10;;;20.20;99.90;;;;;;5075169;28;20626;-70
2022/08/17 05:51:08;;;;;;;9.80;9.00;;;20.20;99.90;;;;;;5075421;28;20578;-70
2022/08/17 05:53:34;;;;;;;18.97;8.90;;;20.10;99.90;;;;;;5075009;28;20582;-70
2022/08/17 05:56:15;;;;;;;9.93;9.03;;;20.00;99.90;;;;;;5075313;28;20618;-70
2022/08/17 05:58:55;;;;;;;10.07;8.97;;;20.00;99.90;;;;;;5074829;28;20546;-70
2022/08/17 06:01:31;;;;;;;9.30;8.57;;;20.00;99.90;;;;;;5075177;28;20537;-70
2022/08/17 06:04:21;;;;;;;9.97;9.10;;;20.10;99.90;;;;;;5075422;28;20567;-70
2022/08/17 06:06:54;;;;;;;13.80;8.57;;;20.20;99.90;;;;;;5074545;28;20615;-70
2022/08/17 06:09:27;;;;;;;8.73;8.03;;;20.30;99.90;;;;;;5074537;28;20962;-70
2022/08/17 06:12:08;;;;;;;9.00;8.20;;;20.50;99.90;;;;;;5074666;28;20579;-70
2022/08/17 06:15:10;;;;;;;10.00;8.40;;;20.60;99.90;;;;;;5074398;28;20622;-70
2022/08/17 06:17:37;;;;;;;10.50;9.70;;;20.50;99.90;;;;;;5074477;28;20644;-70
2022/08/17 06:20:09;;;;;;;11.30;8.60;;;20.40;99.90;;;;;;5074346;28;21174;-70
2022/08/17 06:22:41;;;;;;;9.53;8.53;;;20.30;99.90;;;;;;5073628;28;20628;-69
2022/08/17 06:25:28;;;;;;;9.83;8.93;;;20.30;99.90;;;;;;5074072;28;20695;-70
2022/08/17 06:28:17;;;;;;;9.50;8.67;;;20.30;99.90;;;;;;5074300;28;20612;-70
2022/08/17 06:30:50;;;;;;;9.73;8.83;;;20.40;99.90;;;;;;5073667;28;20642;-70
2022/08/17 06:33:24;;;;;;;11.30;7.80;;;20.60;99.90;;;;;;5074163;28;21163;-70
2022/08/17 06:36:29;;;;;;;10.10;9.20;;;20.90;99.90;;;;;;5073913;28;20582;-70
2022/08/17 06:39:09;;;;;;;9.20;8.40;;;21.10;99.90;;;;;;5073856;28;20641;-70
2022/08/17 06:41:45;;;;;;;9.80;9.00;;;21.30;99.90;;;;;;5074170;28;20575;-70
2022/08/17 06:44:20;;;;;;;10.00;9.10;;;21.30;99.90;;;;;;5073787;28;20629;-70
2022/08/17 06:46:51;;;;;;;11.17;9.60;;;21.00;99.90;;;;;;5074122;28;20602;-70
2022/08/17 06:49:24;;;;;;;9.67;8.87;;;20.80;99.90;;;;;;5073983;28;20932;-70
2022/08/17 06:52:00;;;;;;;8.97;8.23;;;20.70;99.90;;;;;;5074111;28;20634;-69
2022/08/17 06:54:36;;;;;;;9.60;8.53;;;20.80;99.90;;;;;;5074011;28;20571;-69
2022/08/17 06:57:23;;;;;;;8.43;7.73;;;20.70;99.90;;;;;;5073769;28;20626;-69
2022/08/17 06:59:58;;;;;;;9.30;8.60;;;20.70;99.90;;;;;;5073573;28;20581;-69
2022/08/17 07:02:45;;;;;;;10.73;9.27;;;20.80;99.90;;;;;;5073525;28;20947;-69
2022/08/17 07:05:14;;;;;;;9.30;8.70;;;20.90;99.90;;;;;;5073568;28;20633;-69
2022/08/17 07:08:00;;;;;;;9.93;8.17;;;21.00;99.90;;;;;;5073715;28;20578;-69
2022/08/17 07:10:39;;;;;;;13.37;9.50;;;21.00;99.90;;;;;;5073667;28;20632;-69
2022/08/17 07:13:40;;;;;;;9.43;8.83;;;21.00;99.90;;;;;;5073304;28;20962;-69
2022/08/17 07:16:14;;;;;;;10.13;9.40;;;21.10;99.90;;;;;;5072259;28;20642;-69
2022/08/17 07:18:42;;;;;;;10.40;9.70;;;21.20;99.90;;;;;;5073187;28;21043;-69
2022/08/17 07:21:25;;;;;;;10.10;9.30;;;21.20;99.90;;;;;;5073507;28;20567;-69
2022/08/17 07:24:19;;;;;;;14.37;10.60;;;21.20;99.90;;;;;;5073338;28;20687;-69
2022/08/17 07:26:48;;;;;;;14.07;9.73;;;21.30;99.90;;;;;;5073051;28;21085;-70
2022/08/17 07:29:18;;;;;;;13.23;11.90;;;21.30;99.90;;;;;;5073125;28;20579;-69
2022/08/17 07:31:45;;;;;;;13.00;10.57;;;21.30;99.90;;;;;;5073429;28;20567;-69
2022/08/17 07:34:13;;;;;;;11.80;10.57;;;21.30;99.90;;;;;;5072918;28;20575;-69
2022/08/17 07:36:41;;;;;;;11.17;9.10;;;21.40;99.90;;;;;;5072866;28;20618;-69
2022/08/17 07:39:09;;;;;;;10.03;8.90;;;21.50;99.90;;;;;;5072989;28;20679;-69
2022/08/17 07:41:40;;;;;;;11.37;10.47;;;21.40;99.90;;;;;;5072633;28;20683;-69
2022/08/17 07:44:14;;;;;;;11.53;10.60;;;21.40;99.90;;;;;;5072684;28;20972;-69
2022/08/17 07:49:43;;;;;;;12.17;10.20;;;21.10;99.90;;;;;;5073141;28;20579;-69
2022/08/17 07:52:31;;;;;;;14.97;11.60;;;21.30;99.90;;;;;;5073458;28;20617;-69
2022/08/17 07:54:58;;;;;;;12.20;11.03;;;21.40;99.90;;;;;;5072917;28;20675;-69
2022/08/17 07:57:34;;;;;;;10.87;9.73;;;21.80;99.90;;;;;;5072930;28;20634;-69
2022/08/17 08:00:00;;;;;;;13.87;10.50;;;22.00;99.90;;;;;;5072558;28;20700;-69
2022/08/17 08:02:37;;;;;;;11.77;10.77;;;21.90;99.90;;;;;;5072610;28;20586;-69
2022/08/17 08:05:12;;;;;;;11.37;10.47;;;21.70;99.90;;;;;;5072841;28;20644;-69
2022/08/17 08:07:58;;;;;;;11.90;10.97;;;21.70;99.90;;;;;;5072615;28;21000;-69
2022/08/17 08:10:42;;;;;;;14.40;11.30;;;21.90;99.90;;;;;;5072903;28;20586;-69
2022/08/17 08:13:13;;;;;;;11.77;10.77;;;21.80;99.90;;;;;;5072613;28;21166;-69
2022/08/17 08:15:53;;;;;;;12.50;11.40;;;21.80;99.90;;;;;;5071182;28;21161;-69
2022/08/17 08:18:31;;;;;;;13.23;11.30;;;22.00;99.90;;;;;;5072912;28;20688;-69
2022/08/17 08:21:04;;;;;;;18.37;12.30;;;22.10;99.90;;;;;;5072952;28;20611;-69
2022/08/17 08:23:42;;;;;;;12.80;11.50;;;22.20;99.90;;;;;;5072965;28;20574;-69
2022/08/17 08:26:25;;;;;;;11.27;10.27;;;22.20;99.90;;;;;;5071632;28;20610;-69
2022/08/17 08:29:00;;;;;;;11.83;10.37;;;22.00;99.90;;;;;;5071511;28;20629;-69
2022/08/17 08:31:40;;;;;;;10.80;9.90;;;22.00;99.90;;;;;;5072445;28;20590;-69
2022/08/17 08:34:33;;;;;;;11.33;9.13;;;22.10;99.90;;;;;;5072559;28;21177;-69
2022/08/17 08:37:34;;;;;;;10.60;9.67;;;22.00;99.90;;;;;;5072298;28;20581;-69
2022/08/17 08:40:22;;;;;;;9.47;8.67;;;22.00;99.90;;;;;;5072316;28;20617;-69
2022/08/17 08:43:02;;;;;;;13.63;9.03;;;21.70;99.90;;;;;;5072568;28;20944;-69
2022/08/17 08:45:55;;;;;;;10.67;9.80;;;21.70;99.90;;;;;;5072239;28;20630;-69
2022/08/17 08:48:58;;;;;;;10.40;9.40;;;21.60;99.90;;;;;;5076420;28;20625;-69
2022/08/17 08:51:59;;;;;;;12.03;10.80;;;21.70;99.90;;;;;;5076239;28;20643;-69
2022/08/17 08:54:38;;;;;;;11.43;10.10;;;21.70;99.90;;;;;;5076292;28;20573;-69
2022/08/17 08:57:14;;;;;;;10.20;9.40;;;21.70;99.90;;;;;;5075682;28;20701;-69
2022/08/17 08:59:51;;;;;;;11.63;10.73;;;21.90;99.90;;;;;;5076439;28;21063;-69
2022/08/17 09:03:03;;;;;;;12.77;11.50;;;22.00;99.90;;;;;;5076191;28;20643;-69
2022/08/17 09:05:51;;;;;;;11.87;10.73;;;22.20;99.90;;;;;;5075643;28;20642;-69
2022/08/17 09:08:35;;;;;;;11.80;9.97;;;22.10;99.90;;;;;;5076130;28;20629;-69
2022/08/17 09:11:36;;;;;;;10.97;9.90;;;22.30;99.90;;;;;;5075634;28;21125;-69
2022/08/17 09:14:21;;;;;;;10.77;9.87;;;22.10;99.90;;;;;;5075689;28;20641;-69
2022/08/17 09:17:03;;;;;;;12.93;11.47;;;21.60;99.90;;;;;;5075916;28;20654;-69
2022/08/17 09:19:45;;;;;;;12.67;11.40;;;21.50;99.90;;;;;;5075712;28;20581;-69
2022/08/17 09:22:24;;;;;;;14.10;12.80;;;21.40;99.90;;;;;;5075872;28;20585;-69
2022/08/17 09:24:57;;;;;;;13.63;12.37;;;21.20;99.90;;;;;;5075926;28;20641;-69
2022/08/17 09:27:46;;;;;;;13.43;12.33;;;21.00;99.90;;;;;;5076055;28;20687;-70
2022/08/17 09:30:13;;;;;;;14.30;13.00;;;20.90;99.90;;;;;;5075672;28;20647;-69
2022/08/17 09:32:48;;;;;;;13.83;12.60;;;21.00;99.90;;;;;;5075624;28;20574;-69
2022/08/17 09:35:42;;;;;;;13.07;12.00;;;21.10;99.90;;;;;;5075978;28;20691;-69
2022/08/17 09:38:17;;;;;;;12.03;11.13;;;21.20;99.90;;;;;;5075608;28;20676;-69
2022/08/17 09:40:43;;;;;;;13.67;11.67;;;21.20;99.90;;;;;;5075712;28;20968;-69
2022/08/17 09:43:35;;;;;;;13.13;11.40;;;21.40;99.90;;;;;;5075717;28;20586;-69
2022/08/17 09:46:12;;;;;;;10.57;9.77;;;21.20;99.90;;;;;;5075130;28;21121;-69
2022/08/17 09:48:42;;;;;;;12.50;11.20;;;21.20;99.90;;;;;;5075366;28;20624;-69
2022/08/17 09:51:33;;;;;;;11.90;10.80;;;21.30;99.90;;;;;;5075326;28;20575;-69
2022/08/17 09:54:00;;;;;;;12.37;11.37;;;21.50;99.90;;;;;;5075709;28;20579;-69
2022/08/17 09:56:30;;;;;;;12.07;11.07;;;21.70;99.90;;;;;;5075230;28;20587;-69
2022/08/17 09:59:15;;;;;;;12.50;11.23;;;21.80;99.90;;;;;;5073317;28;20695;-70
2022/08/17 10:01:56;;;;;;;10.50;9.60;;;22.20;99.90;;;;;;5074894;28;20629;-70
2022/08/17 10:04:58;;;;;;;11.50;10.50;;;22.10;99.90;;;;;;5074952;28;20577;-70
2022/08/17 10:08:00;;;;;;;10.70;9.90;;;22.30;99.90;;;;;;5061469;28;21022;-70
2022/08/17 10:10:44;;;;;;;9.50;8.70;;;22.50;99.90;;;;;;5074956;28;20631;-69
2022/08/17 10:13:18;;;;;;;11.60;10.37;;;23.20;99.90;;;;;;5074650;28;20575;-70
2022/08/17 10:16:01;;;;;;;9.87;9.07;;;23.10;99.90;;;;;;5074825;28;20622;-69
2022/08/17 10:19:04;;;;;;;10.97;9.90;;;22.90;99.90;;;;;;5074731;28;20634;-69
2022/08/17 10:27:18;;;;;;;9.20;8.60;;;22.60;99.90;;;;;;5074634;28;20578;-69
2022/08/17 10:29:56;;;;;;;9.90;9.10;;;22.40;99.90;;;;;;5074643;28;20634;-69
2022/08/17 10:32:49;;;;;;;9.13;8.40;;;22.40;99.90;;;;;;5074458;28;21030;-70
2022/08/17 10:35:33;;;;;;;10.80;8.63;;;22.50;99.90;;;;;;5074032;28;20618;-69
2022/08/17 10:38:38;;;;;;;9.50;8.60;;;22.50;99.90;;;;;;5074046;28;20645;-69
2022/08/17 10:41:28;;;;;;;9.17;8.57;;;22.60;99.90;;;;;;5073736;28;21016;-69
2022/08/17 10:44:02;;;;;;;9.67;8.80;;;22.70;99.90;;;;;;5072887;28;20679;-70
2022/08/17 10:46:40;;;;;;;8.73;8.03;;;22.70;99.90;;;;;;5074640;28;20576;-69
2022/08/17 10:49:16;;;;;;;8.20;7.70;;;22.90;99.90;;;;;;5073762;28;21124;-69
2022/08/17 10:51:46;;;;;;;8.87;8.17;;;23.10;99.90;;;;;;5074196;28;20719;-69
2022/08/17 10:54:47;;;;;;;7.77;7.17;;;23.00;99.90;;;;;;5074102;28;20625;-69
2022/08/17 10:57:30;;;;;;;8.27;7.47;;;22.90;99.90;;;;;;5073477;28;20968;-69
2022/08/17 10:59:59;;;;;;;7.13;6.63;;;22.90;99.90;;;;;;5074133;28;20618;-69
2022/08/17 11:02:30;;;;;;;8.17;7.47;;;22.70;99.90;;;;;;5073895;28;20571;-69
2022/08/17 11:04:59;;;;;;;7.87;7.27;;;22.70;99.90;;;;;;5073989;28;20649;-69
2022/08/17 11:07:44;;;;;;;8.33;7.63;;;22.60;99.90;;;;;;5073907;28;20567;-69
2022/08/17 11:10:17;;;;;;;8.33;7.63;;;22.60;99.90;;;;;;5072886;28;20598;-69
2022/08/17 11:12:47;;;;;;;7.87;7.10;;;22.70;99.90;;;;;;5073402;28;21034;-69
2022/08/17 11:15:26;;;;;;;8.67;7.87;;;22.90;99.90;;;;;;5073584;28;20651;-69
2022/08/17 11:18:19;;;;;;;7.37;6.70;;;22.80;99.90;;;;;;5073670;28;20662;-69
2022/08/17 11:21:29;;;;;;;7.50;7.00;;;23.00;99.90;;;;;;5072418;28;21190;-69
2022/08/17 11:24:16;;;;;;;7.70;7.00;;;23.20;99.90;;;;;;5073111;28;20650;-69
2022/08/17 11:27:06;;;;;;;7.80;7.20;;;23.00;99.90;;;;;;5073362;28;21186;-69
2022/08/17 11:29:54;;;;;;;7.43;6.83;;;22.80;99.90;;;;;;5073356;28;20621;-69
2022/08/17 11:32:40;;;;;;;7.37;6.90;;;23.00;99.90;;;;;;5073516;28;20579;-69
2022/08/17 11:35:21;;;;;;;7.27;6.67;;;22.80;99.90;;;;;;5073723;28;20652;-69
2022/08/17 11:38:27;;;;;;;7.90;7.30;;;23.00;99.90;;;;;;5073186;28;20638;-69
2022/08/17 11:41:12;;;;;;;7.33;6.73;;;23.00;99.90;;;;;;5073543;28;20961;-69
2022/08/17 11:43:44;;;;;;;7.50;6.87;;;22.90;99.90;;;;;;5073177;28;20593;-69
2022/08/17 11:52:32;;;;;;;7.30;6.80;;;23.10;99.90;;;;;;5073109;28;20582;-69
2022/08/17 11:54:59;;;;;;;6.97;6.57;;;23.00;99.90;;;;;;5073777;28;20618;-69
2022/08/17 11:57:25;;;;;;;7.00;6.40;;;23.10;99.90;;;;;;5073343;28;20704;-69
2022/08/17 11:59:53;;;;;;;7.47;6.73;;;23.10;99.90;;;;;;5073329;28;20630;-69
2022/08/17 12:02:31;;;;;;;7.70;7.07;;;23.10;99.90;;;;;;5073327;28;20574;-69
2022/08/17 12:05:12;;;;;;;6.97;6.47;;;23.10;99.90;;;;;;5073053;28;20646;-69
2022/08/17 12:07:50;;;;;;;7.50;6.87;;;23.10;99.90;;;;;;5073211;28;20618;-70
2022/08/17 12:10:20;;;;;;;7.00;6.50;;;23.40;99.90;;;;;;5073108;28;21045;-70
2022/08/17 12:12:49;;;;;;;6.87;6.47;;;23.70;99.90;;;;;;5073238;28;20636;-69
2022/08/17 12:15:24;;;;;;;8.73;6.33;;;23.80;99.90;;;;;;5072854;28;20644;-70
2022/08/17 12:17:54;;;;;;;6.03;5.73;;;24.40;99.90;;;;;;5072879;28;20585;-69
2022/08/17 12:20:35;;;;;;;6.30;5.90;;;24.40;99.90;;;;;;5073178;28;21125;-70
2022/08/17 12:23:14;;;;;;;7.73;7.07;;;24.30;99.90;;;;;;5076862;28;20699;-69
2022/08/17 12:25:57;;;;;;;7.20;6.70;;;24.10;99.90;;;;;;5077194;28;20989;-70
2022/08/17 12:28:30;;;;;;;7.57;6.87;;;23.80;99.90;;;;;;5076857;28;20579;-70
2022/08/17 12:31:01;;;;;;;7.57;6.50;;;24.20;99.90;;;;;;5076655;28;20571;-70
2022/08/17 12:33:27;;;;;;;7.00;6.40;;;24.50;99.90;;;;;;5076981;28;20622;-70
2022/08/17 12:36:03;;;;;;;8.67;6.60;;;24.80;99.90;;;;;;5077090;28;20570;-70
2022/08/17 12:38:33;;;;;;;6.30;5.90;;;25.30;99.90;;;;;;5076875;28;20687;-70
2022/08/17 12:41:25;;;;;;;6.97;6.40;;;25.30;99.90;;;;;;5076804;28;21102;-70
2022/08/17 12:44:14;;;;;;;7.33;6.73;;;25.30;99.90;;;;;;5076484;28;20630;-70
2022/08/17 12:46:57;;;;;;;7.30;6.77;;;25.10;99.90;;;;;;5076486;28;20586;-70
2022/08/17 12:49:30;;;;;;;7.10;5.97;;;25.20;99.90;;;;;;5076390;28;21018;-70
2022/08/17 12:52:11;;;;;;;12.20;6.93;;;25.50;99.90;;;;;;5076605;28;20597;-70
2022/08/17 12:55:05;;;;;;;6.63;6.10;;;25.30;99.90;;;;;;5076515;28;20626;-71
2022/08/17 12:57:42;;;;;;;6.30;5.83;;;25.40;99.90;;;;;;5076417;28;20618;-69
2022/08/17 13:00:21;;;;;;;6.70;6.30;;;25.70;99.90;;;;;;5076163;28;21196;-69
2022/08/17 13:02:52;;;;;;;6.47;5.90;;;26.00;99.90;;;;;;5076086;28;20593;-70
2022/08/17 13:05:21;;;;;;;9.13;5.60;;;26.90;99.90;;;;;;5076190;28;20637;-69
2022/08/17 13:07:49;;;;;;;5.93;5.63;;;27.50;99.90;;;;;;5076393;28;20571;-69
2022/08/17 13:10:35;;;;;;;5.80;5.40;;;27.80;99.90;;;;;;5076172;28;21001;-70
2022/08/17 13:13:04;;;;;;;6.03;5.53;;;28.70;99.90;;;;;;5076155;28;20679;-70
2022/08/17 13:15:41;;;;;;;6.00;5.60;;;29.10;99.90;;;;;;5076041;28;20956;-70
2022/08/17 13:18:53;;;;;;;5.80;5.50;;;30.00;99.90;;;;;;5075517;28;20617;-69
2022/08/17 13:21:25;;;;;;;5.90;5.50;;;30.20;99.90;;;;;;5073926;28;20642;-70
2022/08/17 13:24:01;;;;;;;6.73;5.57;;;30.00;99.90;;;;;;5075918;28;20999;-70
2022/08/17 13:26:33;;;;;;;6.27;5.87;;;29.60;99.90;;;;;;5076188;28;20596;-70
2022/08/17 13:29:04;;;;;;;6.93;5.60;;;29.60;99.90;;;;;;5076163;28;20585;-70
2022/08/17 13:31:36;;;;;;;6.60;5.97;;;29.80;99.90;;;;;;5075902;28;20628;-70
2022/08/17 13:34:28;;;;;;;5.77;5.37;;;29.90;99.90;;;;;;5075231;28;20586;-70
2022/08/17 13:37:28;;;;;;;5.63;5.33;;;29.70;99.90;;;;;;5074142;28;20672;-72
2022/08/17 13:39:58;;;;;;;5.57;5.20;;;30.60;99.90;;;;;;5075526;28;20641;-72
2022/08/17 13:42:54;;;;;;;5.77;5.30;;;30.60;99.90;;;;;;5075488;28;20622;-72
2022/08/17 13:45:29;;;;;;;6.07;5.67;;;30.40;99.90;;;;;;5075150;28;21033;-72
2022/08/17 13:48:10;;;;;;;5.80;5.30;;;31.30;99.90;;;;;;5075128;28;20602;-72
2022/08/17 13:51:03;;;;;;;5.37;4.97;;;30.90;99.90;;;;;;5075008;28;20617;-72
2022/08/17 13:53:49;;;;;;;6.17;5.60;;;30.60;99.90;;;;;;5075366;28;20990;-71